Altmar, NY (13302)

9:45 PM EST on December 02, 2016 (GMT -0500)
Orwell | | Change Station

Elev 709 ft 43.58 °N, 76.01 °W | Updated 2 seconds ago

Overcast
Overcast
37.2 °F
Feels Like 28 °F
N
14.3
Wind Variable Wind from WNW
Gusts 15.0 mph

Today
High -- | Low -- °F
--% Chance of Precip.
Yesterday
High -- | Low -- °F
Precip. -- in
Pressure 29.88 in
Visibility 10.0 miles
Clouds Scattered Clouds 2600 ft
Mostly Cloudy 3300 ft
Overcast 4900 ft
Windchill 28 °F
Dew Point 27 °F
Humidity 65%
Rainfall 0.50 in
Snow Depth Not available.
7:18 AM 4:28 PM
Waxing Crescent, 12% visible
METAR KFZY 030154Z AUTO 29010G21KT 10SM -RA SCT026 BKN033 OVC049 03/00 A2987 RMK AO2 RAE0056B17 SLP119 P0000 T00330000
Pressure 29.88 in
Visibility 10.0 miles
Clouds Scattered Clouds 2600 ft
Mostly Cloudy 3300 ft
Overcast 4900 ft
Windchill 28 °F
Dew Point 27 °F
Humidity 65%
Rainfall 0.50 in
Snow Depth Not available.
7:18 AM 4:28 PM
Waxing Crescent, 12% visible
METAR KFZY 030154Z AUTO 29010G21KT 10SM -RA SCT026 BKN033 OVC049 03/00 A2987 RMK AO2 RAE0056B17 SLP119 P0000 T00330000

10-Day Weather Forecast

Almanac

Astronomy

Dec. 02, 2016 Rise Set
Actual Time
Civil Twilight
Nautical Twilight
Astronomical Twilight
Moon
Length of Visible Light
Length of Day
Tomorrow will be .
, % of the Moon is Illuminated

Today's Extremes

State Highs State Lows

Community

WunderPhotos

Upload Photos

1,955,396 photos uploaded!

WunderBlog® & News

Nearby

Air Quality

  Air Quality AQ Index Pollutant
Not available.

Snow Depth

Station Depth Elevation

Earthquake Activity

City Distance Mag. Time & Date
Minimum magnitude displayed is 2.5.

Coastal Water Temperatures

Place Temperature

Stations

Nearby Weather Stations

Station Location Temp. Windchill Dew Point Humidity Wind Precip. Elev Updated Type
                   

Watches & Warnings

There are currently no watches in effect.